createdAt,value
2018-04-02T00:02:13.009Z,4.33
2018-04-02T00:04:48.002Z,4.30
2018-04-02T00:07:17.758Z,4.87
2018-04-02T00:09:46.750Z,4.97
2018-04-02T00:12:15.692Z,4.73
2018-04-02T00:14:48.102Z,4.27
2018-04-02T00:20:29.175Z,5.20
2018-04-02T00:24:39.853Z,4.60
2018-04-02T00:27:08.891Z,4.53
2018-04-02T00:29:37.854Z,5.27
2018-04-02T00:32:06.891Z,5.27
2018-04-02T00:34:36.669Z,5.63
2018-04-02T00:37:05.637Z,5.40
2018-04-02T00:39:34.644Z,4.93
2018-04-02T00:42:03.706Z,5.50
2018-04-02T00:44:32.714Z,5.57
2018-04-02T00:47:01.664Z,4.93
2018-04-02T00:55:55.147Z,4.70
2018-04-02T06:02:54.553Z,9.50
2018-04-02T06:05:23.548Z,9.63
2018-04-02T06:07:52.511Z,9.90
2018-04-02T06:10:21.525Z,10.27
2018-04-02T06:12:50.469Z,10.17
2018-04-02T06:15:19.432Z,10.33
2018-04-02T06:17:49.138Z,9.77
2018-04-02T06:20:18.820Z,9.83
2018-04-02T06:22:47.739Z,10.50
2018-04-02T06:25:16.720Z,10.73
2018-04-02T06:27:48.281Z,10.53
2018-04-02T06:30:17.314Z,10.30
2018-04-02T06:32:46.307Z,9.43
2018-04-02T06:35:15.320Z,11.43
2018-04-02T06:37:44.327Z,10.03
2018-04-02T06:40:13.273Z,10.67
2018-04-02T06:42:42.235Z,10.70
2018-04-02T06:45:11.222Z,11.50
2018-04-02T06:47:40.133Z,10.57
2018-04-02T06:50:09.862Z,11.23
2018-04-02T06:52:38.909Z,10.57
2018-04-02T07:01:09.870Z,11.30
2018-04-02T07:03:39.862Z,10.97
2018-04-02T07:06:11.367Z,10.10
2018-04-02T07:08:41.183Z,10.87
2018-04-02T07:14:48.387Z,10.13
2018-04-02T07:17:17.332Z,10.87
2018-04-02T07:19:51.118Z,10.80
2018-04-02T07:22:20.027Z,11.73
2018-04-02T07:24:49.173Z,10.27
2018-04-02T07:27:18.876Z,10.87
2018-04-02T07:29:50.842Z,10.27
2018-04-02T07:32:20.794Z,10.37
2018-04-02T07:38:19.780Z,10.97
2018-04-02T07:41:13.133Z,9.80
2018-04-02T07:43:46.514Z,9.30
2018-04-02T07:46:20.905Z,10.57
2018-04-02T07:48:50.938Z,10.50
2018-04-02T07:51:23.031Z,10.40
2018-04-02T07:53:52.794Z,10.00
2018-04-02T07:56:21.948Z,9.93
2018-04-02T07:58:51.023Z,9.87
2018-04-02T08:01:20.850Z,10.10
2018-04-02T08:03:49.989Z,9.97
2018-04-02T08:06:18.888Z,9.50
2018-04-02T08:08:48.005Z,10.00
2018-04-02T08:11:16.993Z,9.97
2018-04-02T08:13:46.167Z,9.83
2018-04-02T08:16:30.595Z,9.70
2018-04-02T08:19:00.769Z,10.10
2018-04-02T08:49:48.855Z,8.97
2018-04-02T08:52:22.233Z,8.70
2018-04-02T08:55:00.058Z,9.20
2018-04-02T09:07:14.663Z,8.80
2018-04-02T09:09:43.729Z,8.67
2018-04-02T09:12:12.624Z,8.47
2018-04-02T09:14:49.453Z,9.10
2018-04-02T09:17:33.450Z,9.00
2018-04-02T09:20:03.196Z,8.60
2018-04-02T09:22:53.287Z,8.83
2018-04-02T10:04:13.005Z,8.53
2018-04-02T10:12:54.053Z,8.40
2018-04-02T10:15:24.305Z,7.50
2018-04-02T10:17:53.222Z,7.70
2018-04-02T10:20:22.945Z,8.00
2018-04-02T10:22:52.672Z,8.23
2018-04-02T10:25:21.767Z,8.03
2018-04-02T10:27:50.695Z,7.30
2018-04-02T10:30:19.645Z,7.97
2018-04-02T10:32:48.642Z,8.27
2018-04-02T10:35:17.569Z,7.83
2018-04-02T10:37:46.501Z,8.07
2018-04-02T10:40:15.462Z,7.67
2018-04-02T10:42:44.479Z,7.70
2018-04-02T10:45:14.162Z,8.17
2018-04-02T10:47:43.927Z,7.53
2018-04-02T10:50:12.890Z,8.47
2018-04-02T10:52:41.947Z,8.50
2018-04-02T10:55:11.771Z,7.77
2018-04-02T10:57:41.531Z,7.23
2018-04-02T11:00:10.519Z,8.03
2018-04-02T11:02:39.552Z,7.73
2018-04-02T11:05:08.517Z,7.40
2018-04-02T11:07:37.461Z,6.47
2018-04-02T11:10:07.221Z,6.80
2018-04-02T11:12:36.119Z,6.57
2018-04-02T11:15:05.094Z,7.20
2018-04-02T11:17:34.073Z,7.20
2018-04-02T11:20:02.972Z,7.20
2018-04-02T11:22:31.895Z,6.83
2018-04-02T11:25:00.899Z,6.93
2018-04-02T11:27:29.848Z,6.23
2018-04-02T11:29:58.784Z,6.00
2018-04-02T11:32:27.775Z,5.53
2018-04-02T11:34:56.742Z,6.07
2018-04-02T11:37:25.698Z,5.73
2018-04-02T11:39:54.652Z,6.40
2018-04-02T11:42:24.355Z,5.67
2018-04-02T11:44:54.140Z,5.87
2018-04-02T11:47:23.349Z,5.97
2018-04-02T11:49:52.317Z,5.70
2018-04-02T11:52:21.234Z,6.30
2018-04-02T11:55:01.600Z,5.57
2018-04-02T11:57:31.372Z,5.97
2018-04-02T12:00:09.643Z,5.90
2018-04-02T12:02:40.140Z,5.60
2018-04-02T12:05:13.856Z,5.77
2018-04-02T12:07:47.524Z,6.00
2018-04-02T12:10:22.499Z,5.40
2018-04-02T12:12:51.473Z,5.23
2018-04-02T12:15:20.549Z,4.90
2018-04-02T12:17:49.540Z,5.83
2018-04-02T12:20:18.483Z,5.93
2018-04-02T12:22:47.504Z,5.70
2018-04-02T12:25:16.449Z,5.27
2018-04-02T12:27:45.373Z,5.17
2018-04-02T12:30:15.113Z,4.90
2018-04-02T12:32:44.111Z,5.03
2018-04-02T12:35:13.066Z,5.73
2018-04-02T12:37:42.744Z,5.23
2018-04-02T12:40:11.707Z,5.17
2018-04-02T12:42:40.617Z,5.00
2018-04-02T12:45:09.591Z,4.63
2018-04-02T12:47:38.582Z,5.13
2018-04-02T12:50:07.502Z,4.73
2018-04-02T12:52:36.422Z,5.23
2018-04-02T12:55:06.210Z,5.37
2018-04-02T12:57:48.420Z,5.17
2018-04-02T13:00:18.180Z,5.30
2018-04-02T13:02:47.814Z,5.00
2018-04-02T13:05:16.763Z,5.63
2018-04-02T13:07:45.798Z,5.83
2018-04-02T13:10:14.771Z,5.07
2018-04-02T13:12:43.643Z,5.50
2018-04-02T13:15:14.181Z,5.73
2018-04-02T13:17:42.573Z,5.97
2018-04-02T13:20:11.515Z,6.03
2018-04-02T13:22:41.282Z,5.77
2018-04-02T13:25:10.208Z,5.67
2018-04-02T13:27:39.134Z,5.90
2018-04-02T13:30:08.110Z,6.47
2018-04-02T13:32:37.985Z,6.10
2018-04-02T13:35:06.937Z,5.77
2018-04-02T13:37:35.874Z,5.40
2018-04-02T13:40:04.849Z,5.60
2018-04-02T13:42:33.862Z,5.50
2018-04-02T13:45:05.040Z,5.70
2018-04-02T13:47:34.084Z,5.83
2018-04-02T13:50:03.964Z,5.67
2018-04-02T13:52:35.324Z,5.73
2018-04-02T13:55:06.577Z,5.77
2018-04-02T13:57:35.597Z,6.13
2018-04-02T14:00:05.594Z,5.83
2018-04-02T14:02:37.817Z,5.87
2018-04-02T14:05:09.239Z,6.37
2018-04-02T14:22:00.066Z,5.80
2018-04-02T14:24:29.935Z,6.13
2018-04-02T14:27:15.679Z,6.60
2018-04-02T14:29:44.689Z,6.70
2018-04-02T14:32:13.668Z,6.10
2018-04-02T14:34:42.661Z,6.40
2018-04-02T14:37:21.835Z,6.37
2018-04-02T14:39:51.581Z,6.30
2018-04-02T14:42:24.692Z,6.90
2018-04-02T14:44:56.341Z,6.53
2018-04-02T14:47:26.478Z,6.37
2018-04-02T14:49:55.479Z,7.10
2018-04-02T14:55:42.403Z,6.17
2018-04-02T14:58:11.366Z,6.23
2018-04-02T15:22:49.062Z,6.60
2018-04-02T15:28:36.268Z,6.50
2018-04-02T15:31:06.060Z,6.63
2018-04-02T15:33:37.317Z,5.80
2018-04-02T15:36:07.907Z,6.00
2018-04-02T15:38:42.280Z,7.17
2018-04-02T15:41:11.427Z,6.30
2018-04-02T15:43:40.476Z,7.53
2018-04-02T15:46:09.455Z,7.07
2018-04-02T15:48:38.440Z,6.30
2018-04-02T15:51:07.451Z,6.60
2018-04-02T15:53:36.417Z,6.50
2018-04-02T15:56:05.466Z,6.27
2018-04-02T15:58:34.614Z,7.13
2018-04-02T16:01:03.569Z,6.63
2018-04-02T16:03:33.272Z,6.40
2018-04-02T16:06:02.236Z,5.83
2018-04-02T16:08:31.268Z,6.40
2018-04-02T16:11:01.001Z,6.07
2018-04-02T16:13:30.776Z,5.80
2018-04-02T16:16:00.503Z,5.20
2018-04-02T16:18:30.657Z,5.00
2018-04-02T16:20:59.624Z,4.70
2018-04-02T16:23:28.642Z,5.07
2018-04-02T16:25:57.580Z,5.20
2018-04-02T16:28:26.490Z,4.90
2018-04-02T16:30:56.292Z,5.17
2018-04-02T16:33:25.223Z,4.70
2018-04-02T16:35:54.206Z,4.83
2018-04-02T16:38:23.125Z,5.43
2018-04-02T16:40:52.057Z,5.37
2018-04-02T16:43:21.117Z,5.10
2018-04-02T16:45:50.093Z,4.77
2018-04-02T16:48:19.105Z,5.23
2018-04-02T16:50:48.122Z,5.90
2018-04-02T16:53:17.148Z,4.60
2018-04-02T16:55:46.183Z,5.73
2018-04-02T16:58:15.109Z,5.43
2018-04-02T17:00:44.317Z,5.37
2018-04-02T17:03:13.347Z,5.70
2018-04-02T17:05:42.334Z,5.13
2018-04-02T17:08:11.399Z,5.07
2018-04-02T17:10:41.183Z,5.93
2018-04-02T17:13:10.124Z,6.10
2018-04-02T17:15:42.197Z,5.37
2018-04-02T17:18:13.096Z,5.53
2018-04-02T18:13:12.935Z,10.13
2018-04-02T18:15:41.898Z,8.97
2018-04-02T18:18:10.914Z,10.50
2018-04-02T18:20:41.240Z,12.47
2018-04-02T18:23:10.275Z,21.40
2018-04-02T18:25:39.296Z,11.10
2018-04-02T18:28:08.288Z,13.43
2018-04-02T18:30:37.279Z,10.50
2018-04-02T18:33:06.224Z,11.50
2018-04-02T18:35:35.261Z,10.93
2018-04-02T18:38:08.476Z,10.00
2018-04-02T18:40:40.429Z,9.37
2018-04-02T18:43:10.511Z,10.33
2018-04-02T18:45:39.505Z,10.13
2018-04-02T18:48:09.279Z,10.70
2018-04-02T18:50:38.436Z,10.67
2018-04-02T18:53:18.722Z,11.37
2018-04-02T18:59:02.275Z,12.20
2018-04-02T19:01:31.214Z,11.70
2018-04-02T19:04:00.216Z,11.07
2018-04-02T19:06:30.167Z,12.00
2018-04-02T19:08:59.118Z,12.13
2018-04-02T19:11:28.057Z,11.10
2018-04-02T19:13:57.120Z,9.83
2018-04-02T19:16:26.118Z,11.83
2018-04-02T19:18:55.084Z,13.40
2018-04-02T19:21:24.077Z,11.83
2018-04-02T19:23:53.799Z,11.03
2018-04-02T19:26:22.786Z,10.17
2018-04-02T19:28:51.782Z,11.07
2018-04-02T19:31:20.719Z,11.90
2018-04-02T19:33:49.726Z,12.23
2018-04-02T19:36:21.638Z,12.50
2018-04-02T19:38:50.658Z,12.07
2018-04-02T19:41:19.571Z,12.60
2018-04-02T19:43:48.599Z,13.17
2018-04-02T19:46:17.577Z,13.30
2018-04-02T19:48:49.795Z,14.40
2018-04-02T19:51:21.138Z,13.60
2018-04-02T19:53:50.137Z,14.03
2018-04-02T19:56:19.065Z,15.47
2018-04-02T19:58:48.791Z,15.73
2018-04-02T20:01:17.742Z,14.40
2018-04-02T20:03:46.710Z,16.70
2018-04-02T20:06:15.664Z,16.00
2018-04-02T20:08:45.309Z,15.60
2018-04-02T20:11:14.176Z,16.57
2018-04-02T20:13:43.876Z,14.93
2018-04-02T20:16:12.790Z,12.43
2018-04-02T20:18:41.701Z,11.53
2018-04-02T20:21:10.627Z,12.83
2018-04-02T20:23:39.545Z,13.27
2018-04-02T20:26:08.489Z,12.37
2018-04-02T20:28:37.627Z,12.40
2018-04-02T20:31:06.586Z,12.77
2018-04-02T20:33:35.537Z,12.13
2018-04-02T20:36:04.481Z,10.37
2018-04-02T20:38:33.378Z,10.13
2018-04-02T20:41:03.052Z,9.40
2018-04-02T20:43:31.978Z,8.97
2018-04-02T20:46:00.901Z,8.63
2018-04-02T20:48:29.798Z,8.20
2018-04-02T20:50:58.731Z,8.90
2018-04-02T20:53:27.649Z,9.07
2018-04-02T20:55:56.659Z,8.03
2018-04-02T20:58:25.589Z,8.77
2018-04-02T21:00:54.532Z,9.00
2018-04-02T21:03:23.468Z,8.87
2018-04-02T21:05:52.361Z,9.00
2018-04-02T21:08:21.303Z,9.70
2018-04-02T21:10:50.198Z,8.30
2018-04-02T21:13:19.111Z,9.20
2018-04-02T21:15:48.078Z,8.60
2018-04-02T21:18:17.014Z,9.30
2018-04-02T21:20:46.003Z,8.83
2018-04-02T21:23:14.929Z,9.20
2018-04-02T21:25:44.659Z,9.10
2018-04-02T21:28:14.348Z,8.50
2018-04-02T21:30:44.113Z,8.37
2018-04-02T21:33:13.063Z,7.90
2018-04-02T21:35:42.034Z,7.50
2018-04-02T21:38:10.946Z,7.60
2018-04-02T21:40:39.824Z,7.17
